This is the latest recevied weather packets stored in our database for station/object N8XE-13. If no packets are shown the sender has not sent any weather packets the latest 10 day(s).
| Time | Temp. | Humidity | Pressure | Rain* | Wind** | Luminosity | Snow |
|---|---|---|---|---|---|---|---|
| 1777582162 | 13.89° C | 47% | - | 0 mm | - | - | - |
| 1777581860 | 13.33° C | 46% | - | 0 mm | - | - | - |
| 1777581555 | 13.89° C | 46% | - | 0 mm | - | - | - |
| 1777581250 | 13.89° C | 47% | - | 0 mm | - | - | - |
| 1777580945 | 12.78° C | 47% | - | 0 mm | - | - | - |
| 1777580640 | 12.22° C | 49% | - | 0 mm | - | - | - |
| 1777580335 | 12.78° C | 47% | - | 0 mm | - | - | - |
| 1777580032 | 12.78° C | 49% | - | 0 mm | - | - | - |
| 1777579728 | 13.33° C | 47% | - | 0 mm | - | - | - |
| 1777579426 | 13.33° C | 48% | - | 0 mm | - | - | - |
| 1777579122 | 13.89° C | 50% | - | 0 mm | - | - | - |
| 1777578821 | 14.44° C | 45% | - | 0 mm | - | - | - |
| 1777578517 | 13.33° C | 49% | - | 0 mm | - | - | - |
| 1777578212 | 13.33° C | 50% | - | 0 mm | - | - | - |
| 1777577908 | 12.22° C | 54% | - | 0 mm | - | - | - |
| 1777577604 | 11.67° C | 55% | - | 0 mm | - | - | - |
| 1777577301 | 11.67° C | 55% | - | 0 mm | - | - | - |
| 1777576997 | 12.78° C | 53% | - | 0 mm | - | - | - |
| 1777576694 | 12.78° C | 54% | - | 0 mm | - | - | - |
| 1777576392 | 12.78° C | 52% | - | 0 mm | - | - | - |
| 1777576089 | 12.78° C | 55% | - | 0 mm | - | - | - |
| 1777575785 | 12.22° C | 57% | - | 0 mm | - | - | - |
| 1777575482 | 12.22° C | 57% | - | 0 mm | - | - | - |
| 1777575178 | 12.22° C | 59% | - | 0 mm | - | - | - |
| 1777574874 | 12.22° C | 58% | - | 0 mm | - | - | - |
* Rain latest hour (hover to see other rain measurements)
** Current wind speed in m/s (hover to see current wind gust speed)